sensor_id;sensor_type;location;lat;lon;timestamp;temperature;humidity
37446;DHT22;23307;51.136;14.942;2023-06-19T00:02:05;18.40;99.90
37446;DHT22;23307;51.136;14.942;2023-06-19T00:04:31;18.40;99.90
37446;DHT22;23307;51.136;14.942;2023-06-19T00:06:57;18.40;99.90
37446;DHT22;23307;51.136;14.942;2023-06-19T00:09:23;18.40;99.90
37446;DHT22;23307;51.136;14.942;2023-06-19T00:11:48;18.40;99.90
37446;DHT22;23307;51.136;14.942;2023-06-19T00:14:14;18.40;99.90
37446;DHT22;23307;51.136;14.942;2023-06-19T00:16:39;18.40;99.90
37446;DHT22;23307;51.136;14.942;2023-06-19T00:19:05;18.30;99.90
37446;DHT22;23307;51.136;14.942;2023-06-19T00:21:31;18.40;99.90
37446;DHT22;23307;51.136;14.942;2023-06-19T00:23:57;18.30;99.90
37446;DHT22;23307;51.136;14.942;2023-06-19T00:26:22;18.30;99.90
37446;DHT22;23307;51.136;14.942;2023-06-19T00:28:49;18.30;99.90
37446;DHT22;23307;51.136;14.942;2023-06-19T00:31:15;18.20;99.90
37446;DHT22;23307;51.136;14.942;2023-06-19T00:33:42;18.10;99.90
37446;DHT22;23307;51.136;14.942;2023-06-19T00:36:11;18.00;99.90
37446;DHT22;23307;51.136;14.942;2023-06-19T00:38:37;17.90;99.90
37446;DHT22;23307;51.136;14.942;2023-06-19T00:41:04;17.90;99.90
37446;DHT22;23307;51.136;14.942;2023-06-19T00:43:30;17.80;99.90
37446;DHT22;23307;51.136;14.942;2023-06-19T00:45:58;17.80;99.90
37446;DHT22;23307;51.136;14.942;2023-06-19T00:48:25;17.80;99.90
37446;DHT22;23307;51.136;14.942;2023-06-19T00:50:51;17.80;99.90
37446;DHT22;23307;51.136;14.942;2023-06-19T00:53:17;17.80;99.90
37446;DHT22;23307;51.136;14.942;2023-06-19T00:55:45;17.70;99.90
37446;DHT22;23307;51.136;14.942;2023-06-19T00:58:11;17.70;99.90
37446;DHT22;23307;51.136;14.942;2023-06-19T01:00:37;17.60;99.90
37446;DHT22;23307;51.136;14.942;2023-06-19T01:03:02;17.60;99.90
37446;DHT22;23307;51.136;14.942;2023-06-19T01:05:29;17.50;99.90
37446;DHT22;23307;51.136;14.942;2023-06-19T01:10:44;17.50;99.90
37446;DHT22;23307;51.136;14.942;2023-06-19T01:13:36;17.40;99.90
37446;DHT22;23307;51.136;14.942;2023-06-19T01:16:03;17.30;99.90
37446;DHT22;23307;51.136;14.942;2023-06-19T01:18:31;17.30;99.90
37446;DHT22;23307;51.136;14.942;2023-06-19T01:21:08;17.30;99.90
37446;DHT22;23307;51.136;14.942;2023-06-19T01:23:33;17.30;99.90
37446;DHT22;23307;51.136;14.942;2023-06-19T01:25:59;17.20;99.90
37446;DHT22;23307;51.136;14.942;2023-06-19T01:28:24;17.20;99.90
37446;DHT22;23307;51.136;14.942;2023-06-19T01:30:52;17.20;99.90
37446;DHT22;23307;51.136;14.942;2023-06-19T01:33:24;17.10;99.90
37446;DHT22;23307;51.136;14.942;2023-06-19T01:35:51;17.10;99.90
37446;DHT22;23307;51.136;14.942;2023-06-19T01:38:19;17.10;99.90
37446;DHT22;23307;51.136;14.942;2023-06-19T01:40:46;17.10;99.90
37446;DHT22;23307;51.136;14.942;2023-06-19T01:43:13;17.10;99.90
37446;DHT22;23307;51.136;14.942;2023-06-19T01:45:40;17.10;99.90
37446;DHT22;23307;51.136;14.942;2023-06-19T01:48:06;17.10;99.90
37446;DHT22;23307;51.136;14.942;2023-06-19T01:50:31;17.10;99.90
37446;DHT22;23307;51.136;14.942;2023-06-19T01:52:57;17.10;99.90
37446;DHT22;23307;51.136;14.942;2023-06-19T01:55:22;17.00;99.90
37446;DHT22;23307;51.136;14.942;2023-06-19T01:57:48;17.10;99.90
37446;DHT22;23307;51.136;14.942;2023-06-19T02:00:14;17.10;99.90
37446;DHT22;23307;51.136;14.942;2023-06-19T02:02:39;17.10;99.90
37446;DHT22;23307;51.136;14.942;2023-06-19T02:05:05;17.00;99.90
37446;DHT22;23307;51.136;14.942;2023-06-19T02:07:31;17.10;99.90
37446;DHT22;23307;51.136;14.942;2023-06-19T02:09:57;17.10;99.90
37446;DHT22;23307;51.136;14.942;2023-06-19T02:12:22;17.10;99.90
37446;DHT22;23307;51.136;14.942;2023-06-19T02:14:48;17.10;99.90
37446;DHT22;23307;51.136;14.942;2023-06-19T02:17:13;17.00;99.90
37446;DHT22;23307;51.136;14.942;2023-06-19T02:19:39;17.00;99.90
37446;DHT22;23307;51.136;14.942;2023-06-19T02:22:05;17.00;99.90
37446;DHT22;23307;51.136;14.942;2023-06-19T02:24:31;17.00;99.90
37446;DHT22;23307;51.136;14.942;2023-06-19T02:26:57;17.00;99.90
37446;DHT22;23307;51.136;14.942;2023-06-19T02:29:23;17.00;99.90
37446;DHT22;23307;51.136;14.942;2023-06-19T02:31:49;17.00;99.90
37446;DHT22;23307;51.136;14.942;2023-06-19T02:34:15;17.10;99.90
37446;DHT22;23307;51.136;14.942;2023-06-19T02:36:40;17.10;99.90
37446;DHT22;23307;51.136;14.942;2023-06-19T02:39:06;17.10;99.90
37446;DHT22;23307;51.136;14.942;2023-06-19T02:41:32;17.00;99.90
37446;DHT22;23307;51.136;14.942;2023-06-19T02:43:58;17.00;99.90
37446;DHT22;23307;51.136;14.942;2023-06-19T02:46:23;17.00;99.90
37446;DHT22;23307;51.136;14.942;2023-06-19T02:48:49;16.90;99.90
37446;DHT22;23307;51.136;14.942;2023-06-19T02:51:14;16.90;99.90
37446;DHT22;23307;51.136;14.942;2023-06-19T02:53:40;16.90;99.90
37446;DHT22;23307;51.136;14.942;2023-06-19T02:56:07;16.90;99.90
37446;DHT22;23307;51.136;14.942;2023-06-19T02:58:33;16.90;99.90
37446;DHT22;23307;51.136;14.942;2023-06-19T03:00:59;16.80;99.90
37446;DHT22;23307;51.136;14.942;2023-06-19T03:03:25;16.80;99.90
37446;DHT22;23307;51.136;14.942;2023-06-19T03:05:51;16.90;99.90
37446;DHT22;23307;51.136;14.942;2023-06-19T03:08:16;16.90;99.90
37446;DHT22;23307;51.136;14.942;2023-06-19T03:10:42;17.00;99.90
37446;DHT22;23307;51.136;14.942;2023-06-19T03:13:07;16.90;99.90
37446;DHT22;23307;51.136;14.942;2023-06-19T03:15:33;17.00;99.90
37446;DHT22;23307;51.136;14.942;2023-06-19T03:17:58;17.00;99.90
37446;DHT22;23307;51.136;14.942;2023-06-19T03:20:24;17.00;99.90
37446;DHT22;23307;51.136;14.942;2023-06-19T03:22:50;17.00;99.90
37446;DHT22;23307;51.136;14.942;2023-06-19T03:25:15;17.00;99.90
37446;DHT22;23307;51.136;14.942;2023-06-19T03:27:41;17.00;99.90
37446;DHT22;23307;51.136;14.942;2023-06-19T03:30:07;16.90;99.90
37446;DHT22;23307;51.136;14.942;2023-06-19T03:32:33;16.90;99.90
37446;DHT22;23307;51.136;14.942;2023-06-19T03:35:00;16.90;99.90
37446;DHT22;23307;51.136;14.942;2023-06-19T03:37:26;16.90;99.90
37446;DHT22;23307;51.136;14.942;2023-06-19T03:39:52;16.80;99.90
37446;DHT22;23307;51.136;14.942;2023-06-19T03:42:17;16.80;99.90
37446;DHT22;23307;51.136;14.942;2023-06-19T03:44:43;16.90;99.90
37446;DHT22;23307;51.136;14.942;2023-06-19T03:47:09;16.90;99.90
37446;DHT22;23307;51.136;14.942;2023-06-19T03:49:34;16.90;99.90
37446;DHT22;23307;51.136;14.942;2023-06-19T03:52:00;16.90;99.90
37446;DHT22;23307;51.136;14.942;2023-06-19T03:54:25;16.90;99.90
37446;DHT22;23307;51.136;14.942;2023-06-19T03:56:52;16.90;99.90
37446;DHT22;23307;51.136;14.942;2023-06-19T03:59:17;16.90;99.90
37446;DHT22;23307;51.136;14.942;2023-06-19T04:01:48;16.90;99.90
37446;DHT22;23307;51.136;14.942;2023-06-19T04:04:14;16.90;99.90
37446;DHT22;23307;51.136;14.942;2023-06-19T04:06:40;16.90;99.90
37446;DHT22;23307;51.136;14.942;2023-06-19T04:09:05;16.90;99.90
37446;DHT22;23307;51.136;14.942;2023-06-19T04:11:31;16.90;99.90
37446;DHT22;23307;51.136;14.942;2023-06-19T04:13:57;16.90;99.90
37446;DHT22;23307;51.136;14.942;2023-06-19T04:16:22;16.90;99.90
37446;DHT22;23307;51.136;14.942;2023-06-19T04:18:48;17.00;99.90
37446;DHT22;23307;51.136;14.942;2023-06-19T04:21:13;17.00;99.90
37446;DHT22;23307;51.136;14.942;2023-06-19T04:23:39;17.10;99.90
37446;DHT22;23307;51.136;14.942;2023-06-19T04:26:04;17.20;99.90
37446;DHT22;23307;51.136;14.942;2023-06-19T04:28:30;17.30;99.90
37446;DHT22;23307;51.136;14.942;2023-06-19T04:30:55;17.40;99.90
37446;DHT22;23307;51.136;14.942;2023-06-19T04:33:29;17.60;99.90
37446;DHT22;23307;51.136;14.942;2023-06-19T04:35:55;17.70;99.90
37446;DHT22;23307;51.136;14.942;2023-06-19T04:38:20;17.90;99.90
37446;DHT22;23307;51.136;14.942;2023-06-19T04:40:52;18.10;99.90
37446;DHT22;23307;51.136;14.942;2023-06-19T04:43:17;18.20;99.90
37446;DHT22;23307;51.136;14.942;2023-06-19T04:45:43;18.40;99.90
37446;DHT22;23307;51.136;14.942;2023-06-19T04:48:09;18.50;99.90
37446;DHT22;23307;51.136;14.942;2023-06-19T04:50:34;18.60;99.90
37446;DHT22;23307;51.136;14.942;2023-06-19T04:53:00;18.70;99.90
37446;DHT22;23307;51.136;14.942;2023-06-19T04:55:25;18.80;99.90
37446;DHT22;23307;51.136;14.942;2023-06-19T04:57:51;18.90;99.90
37446;DHT22;23307;51.136;14.942;2023-06-19T05:00:17;19.00;99.90
37446;DHT22;23307;51.136;14.942;2023-06-19T05:02:45;19.00;99.90
37446;DHT22;23307;51.136;14.942;2023-06-19T05:05:13;19.00;99.90
37446;DHT22;23307;51.136;14.942;2023-06-19T05:07:38;19.10;99.90
37446;DHT22;23307;51.136;14.942;2023-06-19T05:10:04;19.20;99.90
37446;DHT22;23307;51.136;14.942;2023-06-19T05:12:30;19.20;99.90
37446;DHT22;23307;51.136;14.942;2023-06-19T05:14:55;19.30;99.90
37446;DHT22;23307;51.136;14.942;2023-06-19T05:17:21;19.30;99.90
37446;DHT22;23307;51.136;14.942;2023-06-19T05:19:46;19.30;99.90
37446;DHT22;23307;51.136;14.942;2023-06-19T05:22:12;19.40;99.90
37446;DHT22;23307;51.136;14.942;2023-06-19T05:24:37;19.40;99.90
37446;DHT22;23307;51.136;14.942;2023-06-19T05:27:03;19.50;99.90
37446;DHT22;23307;51.136;14.942;2023-06-19T05:29:29;19.50;99.90
37446;DHT22;23307;51.136;14.942;2023-06-19T05:31:56;19.60;99.90
37446;DHT22;23307;51.136;14.942;2023-06-19T05:34:21;19.60;99.90
37446;DHT22;23307;51.136;14.942;2023-06-19T05:36:48;19.60;99.90
37446;DHT22;23307;51.136;14.942;2023-06-19T05:39:14;19.70;99.90
37446;DHT22;23307;51.136;14.942;2023-06-19T05:41:40;19.70;99.90
37446;DHT22;23307;51.136;14.942;2023-06-19T05:44:05;19.80;99.90
37446;DHT22;23307;51.136;14.942;2023-06-19T05:46:31;19.80;99.90
37446;DHT22;23307;51.136;14.942;2023-06-19T05:48:56;20.00;99.90
37446;DHT22;23307;51.136;14.942;2023-06-19T05:51:22;20.10;99.90
37446;DHT22;23307;51.136;14.942;2023-06-19T05:53:47;20.20;99.90
37446;DHT22;23307;51.136;14.942;2023-06-19T05:56:15;20.30;99.90
37446;DHT22;23307;51.136;14.942;2023-06-19T05:58:40;20.40;99.90
37446;DHT22;23307;51.136;14.942;2023-06-19T06:01:06;20.50;99.90
37446;DHT22;23307;51.136;14.942;2023-06-19T06:03:32;20.60;99.90
37446;DHT22;23307;51.136;14.942;2023-06-19T06:05:57;20.70;99.90
37446;DHT22;23307;51.136;14.942;2023-06-19T06:08:31;20.80;99.90
37446;DHT22;23307;51.136;14.942;2023-06-19T06:10:57;20.90;99.90
37446;DHT22;23307;51.136;14.942;2023-06-19T06:13:23;21.00;99.90
37446;DHT22;23307;51.136;14.942;2023-06-19T06:15:50;21.10;99.90
37446;DHT22;23307;51.136;14.942;2023-06-19T06:18:15;21.20;99.90
37446;DHT22;23307;51.136;14.942;2023-06-19T06:20:41;21.30;99.90
37446;DHT22;23307;51.136;14.942;2023-06-19T06:23:06;21.30;99.90
37446;DHT22;23307;51.136;14.942;2023-06-19T06:25:32;21.40;99.90
37446;DHT22;23307;51.136;14.942;2023-06-19T06:27:57;21.40;99.90
37446;DHT22;23307;51.136;14.942;2023-06-19T06:30:23;21.50;99.90
37446;DHT22;23307;51.136;14.942;2023-06-19T06:32:49;21.60;99.90
37446;DHT22;23307;51.136;14.942;2023-06-19T06:35:15;21.70;99.90
37446;DHT22;23307;51.136;14.942;2023-06-19T06:37:40;21.70;99.90
37446;DHT22;23307;51.136;14.942;2023-06-19T06:40:07;21.80;99.90
37446;DHT22;23307;51.136;14.942;2023-06-19T06:42:36;21.90;99.90
37446;DHT22;23307;51.136;14.942;2023-06-19T06:45:03;22.10;99.90
37446;DHT22;23307;51.136;14.942;2023-06-19T06:47:29;22.20;99.90
37446;DHT22;23307;51.136;14.942;2023-06-19T06:49:54;22.30;99.90
37446;DHT22;23307;51.136;14.942;2023-06-19T06:52:20;22.40;99.90
37446;DHT22;23307;51.136;14.942;2023-06-19T06:54:45;22.50;99.90
37446;DHT22;23307;51.136;14.942;2023-06-19T06:57:11;22.60;99.90
37446;DHT22;23307;51.136;14.942;2023-06-19T06:59:36;22.60;99.90
37446;DHT22;23307;51.136;14.942;2023-06-19T07:02:02;22.70;99.90
37446;DHT22;23307;51.136;14.942;2023-06-19T07:04:28;22.80;99.90
37446;DHT22;23307;51.136;14.942;2023-06-19T07:06:53;22.80;99.90
37446;DHT22;23307;51.136;14.942;2023-06-19T07:09:19;22.90;99.90
37446;DHT22;23307;51.136;14.942;2023-06-19T07:11:46;23.00;99.90
37446;DHT22;23307;51.136;14.942;2023-06-19T07:14:12;23.00;99.90
37446;DHT22;23307;51.136;14.942;2023-06-19T07:16:37;23.10;99.90
37446;DHT22;23307;51.136;14.942;2023-06-19T07:19:03;23.20;99.90
37446;DHT22;23307;51.136;14.942;2023-06-19T07:21:29;23.20;99.90
37446;DHT22;23307;51.136;14.942;2023-06-19T07:23:55;23.30;99.90
37446;DHT22;23307;51.136;14.942;2023-06-19T07:26:21;23.30;99.90
37446;DHT22;23307;51.136;14.942;2023-06-19T07:28:47;23.40;99.90
37446;DHT22;23307;51.136;14.942;2023-06-19T07:31:12;23.40;99.90
37446;DHT22;23307;51.136;14.942;2023-06-19T07:33:38;23.50;99.90
37446;DHT22;23307;51.136;14.942;2023-06-19T07:36:04;23.60;99.90
37446;DHT22;23307;51.136;14.942;2023-06-19T07:38:29;23.70;99.90
37446;DHT22;23307;51.136;14.942;2023-06-19T07:40:55;23.80;99.90
37446;DHT22;23307;51.136;14.942;2023-06-19T07:43:20;23.90;99.90
37446;DHT22;23307;51.136;14.942;2023-06-19T07:45:48;24.00;99.90
37446;DHT22;23307;51.136;14.942;2023-06-19T07:48:13;24.00;99.90
37446;DHT22;23307;51.136;14.942;2023-06-19T07:50:39;24.10;99.90
37446;DHT22;23307;51.136;14.942;2023-06-19T07:53:04;24.20;99.90
37446;DHT22;23307;51.136;14.942;2023-06-19T07:55:30;24.20;99.90
37446;DHT22;23307;51.136;14.942;2023-06-19T07:57:56;24.30;99.90
37446;DHT22;23307;51.136;14.942;2023-06-19T08:00:23;24.40;99.90
37446;DHT22;23307;51.136;14.942;2023-06-19T08:02:49;24.50;99.90
37446;DHT22;23307;51.136;14.942;2023-06-19T08:05:15;24.60;99.90
37446;DHT22;23307;51.136;14.942;2023-06-19T08:07:41;24.60;99.90
37446;DHT22;23307;51.136;14.942;2023-06-19T08:10:07;24.80;99.90
37446;DHT22;23307;51.136;14.942;2023-06-19T08:12:33;24.90;99.90
37446;DHT22;23307;51.136;14.942;2023-06-19T08:14:58;25.00;99.90
37446;DHT22;23307;51.136;14.942;2023-06-19T08:17:24;25.10;99.90
37446;DHT22;23307;51.136;14.942;2023-06-19T08:19:50;25.20;99.90
37446;DHT22;23307;51.136;14.942;2023-06-19T08:22:15;25.30;99.90
37446;DHT22;23307;51.136;14.942;2023-06-19T08:24:41;25.40;99.90
37446;DHT22;23307;51.136;14.942;2023-06-19T08:27:06;25.40;99.90
37446;DHT22;23307;51.136;14.942;2023-06-19T08:29:33;25.40;99.90
37446;DHT22;23307;51.136;14.942;2023-06-19T08:31:58;25.50;99.90
37446;DHT22;23307;51.136;14.942;2023-06-19T08:34:24;25.60;99.90
37446;DHT22;23307;51.136;14.942;2023-06-19T08:36:49;25.70;99.90
37446;DHT22;23307;51.136;14.942;2023-06-19T08:39:15;25.90;99.90
37446;DHT22;23307;51.136;14.942;2023-06-19T08:41:41;26.00;99.90
37446;DHT22;23307;51.136;14.942;2023-06-19T08:44:07;26.00;99.90
37446;DHT22;23307;51.136;14.942;2023-06-19T08:46:34;26.20;99.90
37446;DHT22;23307;51.136;14.942;2023-06-19T08:48:59;26.50;99.90
37446;DHT22;23307;51.136;14.942;2023-06-19T08:51:29;26.90;99.90
37446;DHT22;23307;51.136;14.942;2023-06-19T08:54:07;27.20;99.90
37446;DHT22;23307;51.136;14.942;2023-06-19T08:56:34;27.50;99.90
37446;DHT22;23307;51.136;14.942;2023-06-19T08:59:11;27.50;99.90
37446;DHT22;23307;51.136;14.942;2023-06-19T09:01:37;27.50;99.90
37446;DHT22;23307;51.136;14.942;2023-06-19T09:04:11;27.50;99.90
37446;DHT22;23307;51.136;14.942;2023-06-19T09:06:46;27.50;99.90
37446;DHT22;23307;51.136;14.942;2023-06-19T09:09:13;27.40;99.00
37446;DHT22;23307;51.136;14.942;2023-06-19T09:11:40;27.30;99.10
37446;DHT22;23307;51.136;14.942;2023-06-19T09:14:09;27.30;99.30
37446;DHT22;23307;51.136;14.942;2023-06-19T09:16:41;27.30;99.10
37446;DHT22;23307;51.136;14.942;2023-06-19T09:19:07;27.40;98.50
37446;DHT22;23307;51.136;14.942;2023-06-19T09:21:36;27.40;98.30
37446;DHT22;23307;51.136;14.942;2023-06-19T09:24:07;27.40;98.40
37446;DHT22;23307;51.136;14.942;2023-06-19T09:26:33;27.40;97.70
37446;DHT22;23307;51.136;14.942;2023-06-19T09:29:10;27.30;97.20
37446;DHT22;23307;51.136;14.942;2023-06-19T09:31:36;27.20;97.20
37446;DHT22;23307;51.136;14.942;2023-06-19T09:34:03;27.20;97.50
37446;DHT22;23307;51.136;14.942;2023-06-19T09:36:31;27.30;97.20
37446;DHT22;23307;51.136;14.942;2023-06-19T09:38:57;27.30;97.00
37446;DHT22;23307;51.136;14.942;2023-06-19T09:41:25;27.20;96.90
37446;DHT22;23307;51.136;14.942;2023-06-19T09:43:54;27.20;97.10
37446;DHT22;23307;51.136;14.942;2023-06-19T09:46:26;27.20;97.00
37446;DHT22;23307;51.136;14.942;2023-06-19T09:48:55;27.30;96.80
37446;DHT22;23307;51.136;14.942;2023-06-19T09:51:33;27.30;97.20
37446;DHT22;23307;51.136;14.942;2023-06-19T09:54:02;27.30;96.90
37446;DHT22;23307;51.136;14.942;2023-06-19T09:56:29;27.30;96.10
37446;DHT22;23307;51.136;14.942;2023-06-19T09:58:57;27.20;96.00
37446;DHT22;23307;51.136;14.942;2023-06-19T10:01:27;27.20;95.80
37446;DHT22;23307;51.136;14.942;2023-06-19T10:04:05;27.20;95.80
37446;DHT22;23307;51.136;14.942;2023-06-19T10:06:31;27.20;96.00
37446;DHT22;23307;51.136;14.942;2023-06-19T10:09:06;27.30;95.70
37446;DHT22;23307;51.136;14.942;2023-06-19T10:11:45;27.30;95.60
37446;DHT22;23307;51.136;14.942;2023-06-19T10:14:11;27.30;95.40
37446;DHT22;23307;51.136;14.942;2023-06-19T10:16:38;27.40;95.70
37446;DHT22;23307;51.136;14.942;2023-06-19T10:19:11;27.40;95.70
37446;DHT22;23307;51.136;14.942;2023-06-19T10:21:50;27.40;95.40
37446;DHT22;23307;51.136;14.942;2023-06-19T10:24:19;27.50;95.60
37446;DHT22;23307;51.136;14.942;2023-06-19T10:27:01;27.50;95.50
37446;DHT22;23307;51.136;14.942;2023-06-19T10:29:38;27.60;96.00
37446;DHT22;23307;51.136;14.942;2023-06-19T10:32:04;27.50;95.40
37446;DHT22;23307;51.136;14.942;2023-06-19T10:34:34;27.60;95.70
37446;DHT22;23307;51.136;14.942;2023-06-19T10:36:59;27.60;95.20
37446;DHT22;23307;51.136;14.942;2023-06-19T10:39:25;27.60;95.40
37446;DHT22;23307;51.136;14.942;2023-06-19T10:41:50;27.70;95.30
37446;DHT22;23307;51.136;14.942;2023-06-19T10:44:16;27.70;95.20
37446;DHT22;23307;51.136;14.942;2023-06-19T10:46:41;27.80;95.10
37446;DHT22;23307;51.136;14.942;2023-06-19T10:49:08;27.80;95.00
37446;DHT22;23307;51.136;14.942;2023-06-19T10:51:40;27.80;94.90
37446;DHT22;23307;51.136;14.942;2023-06-19T10:54:08;27.90;95.00
37446;DHT22;23307;51.136;14.942;2023-06-19T10:56:33;27.90;95.20
37446;DHT22;23307;51.136;14.942;2023-06-19T10:59:07;27.80;94.80
37446;DHT22;23307;51.136;14.942;2023-06-19T11:01:43;27.80;95.20
37446;DHT22;23307;51.136;14.942;2023-06-19T11:04:11;27.70;95.20
37446;DHT22;23307;51.136;14.942;2023-06-19T11:06:38;27.70;95.60
37446;DHT22;23307;51.136;14.942;2023-06-19T11:09:06;27.70;95.80
37446;DHT22;23307;51.136;14.942;2023-06-19T11:11:43;27.60;95.60
37446;DHT22;23307;51.136;14.942;2023-06-19T11:14:10;27.60;95.30
37446;DHT22;23307;51.136;14.942;2023-06-19T11:16:39;27.50;94.80
37446;DHT22;23307;51.136;14.942;2023-06-19T11:19:13;27.50;94.90
37446;DHT22;23307;51.136;14.942;2023-06-19T11:21:40;27.50;94.80
37446;DHT22;23307;51.136;14.942;2023-06-19T11:24:10;27.40;94.70
37446;DHT22;23307;51.136;14.942;2023-06-19T11:26:41;27.40;94.70
37446;DHT22;23307;51.136;14.942;2023-06-19T11:29:16;27.40;94.60
37446;DHT22;23307;51.136;14.942;2023-06-19T11:31:42;27.40;94.50
37446;DHT22;23307;51.136;14.942;2023-06-19T11:34:07;27.30;94.40
37446;DHT22;23307;51.136;14.942;2023-06-19T11:36:36;27.30;94.50
37446;DHT22;23307;51.136;14.942;2023-06-19T11:39:01;27.40;94.90
37446;DHT22;23307;51.136;14.942;2023-06-19T11:41:32;27.40;94.80
37446;DHT22;23307;51.136;14.942;2023-06-19T11:44:05;27.50;94.80
37446;DHT22;23307;51.136;14.942;2023-06-19T11:46:33;27.50;94.70
37446;DHT22;23307;51.136;14.942;2023-06-19T11:49:11;27.50;94.60
37446;DHT22;23307;51.136;14.942;2023-06-19T11:51:37;27.50;95.10
37446;DHT22;23307;51.136;14.942;2023-06-19T11:54:07;27.50;95.00
37446;DHT22;23307;51.136;14.942;2023-06-19T11:56:37;27.60;95.00
37446;DHT22;23307;51.136;14.942;2023-06-19T11:59:03;27.70;94.90
37446;DHT22;23307;51.136;14.942;2023-06-19T12:01:31;27.70;94.90
37446;DHT22;23307;51.136;14.942;2023-06-19T12:03:57;27.80;95.00
37446;DHT22;23307;51.136;14.942;2023-06-19T12:06:22;27.90;94.60
37446;DHT22;23307;51.136;14.942;2023-06-19T12:08:48;27.90;94.70
37446;DHT22;23307;51.136;14.942;2023-06-19T12:11:14;28.00;94.20
37446;DHT22;23307;51.136;14.942;2023-06-19T12:13:43;28.00;94.10
37446;DHT22;23307;51.136;14.942;2023-06-19T12:16:10;28.10;94.20
37446;DHT22;23307;51.136;14.942;2023-06-19T12:18:35;28.00;94.10
37446;DHT22;23307;51.136;14.942;2023-06-19T12:21:01;28.00;93.90
37446;DHT22;23307;51.136;14.942;2023-06-19T12:23:26;27.90;93.30
37446;DHT22;23307;51.136;14.942;2023-06-19T12:25:52;28.00;93.50
37446;DHT22;23307;51.136;14.942;2023-06-19T12:28:17;28.10;92.80
37446;DHT22;23307;51.136;14.942;2023-06-19T12:30:44;28.00;93.00
37446;DHT22;23307;51.136;14.942;2023-06-19T12:33:10;28.10;92.80
37446;DHT22;23307;51.136;14.942;2023-06-19T12:35:39;28.20;92.90
37446;DHT22;23307;51.136;14.942;2023-06-19T12:38:04;28.20;93.00
37446;DHT22;23307;51.136;14.942;2023-06-19T12:40:30;28.30;92.50
37446;DHT22;23307;51.136;14.942;2023-06-19T12:42:55;28.40;92.70
37446;DHT22;23307;51.136;14.942;2023-06-19T12:45:21;28.40;93.30
37446;DHT22;23307;51.136;14.942;2023-06-19T12:47:46;28.40;93.20
37446;DHT22;23307;51.136;14.942;2023-06-19T12:50:12;28.50;92.50
37446;DHT22;23307;51.136;14.942;2023-06-19T12:52:37;28.70;92.10
37446;DHT22;23307;51.136;14.942;2023-06-19T12:55:03;28.90;92.10
37446;DHT22;23307;51.136;14.942;2023-06-19T12:57:29;29.10;92.30
37446;DHT22;23307;51.136;14.942;2023-06-19T12:59:54;29.30;92.40
37446;DHT22;23307;51.136;14.942;2023-06-19T13:02:21;29.40;91.40
37446;DHT22;23307;51.136;14.942;2023-06-19T13:04:46;29.50;91.50
37446;DHT22;23307;51.136;14.942;2023-06-19T13:07:12;29.70;91.50
37446;DHT22;23307;51.136;14.942;2023-06-19T13:09:38;29.70;90.10
37446;DHT22;23307;51.136;14.942;2023-06-19T13:12:03;29.70;90.90
37446;DHT22;23307;51.136;14.942;2023-06-19T13:14:29;30.00;90.50
37446;DHT22;23307;51.136;14.942;2023-06-19T13:16:56;30.30;89.20
37446;DHT22;23307;51.136;14.942;2023-06-19T13:19:23;30.50;87.70
37446;DHT22;23307;51.136;14.942;2023-06-19T13:21:48;30.50;85.00
37446;DHT22;23307;51.136;14.942;2023-06-19T13:24:14;30.40;84.60
37446;DHT22;23307;51.136;14.942;2023-06-19T13:26:39;30.30;83.30
37446;DHT22;23307;51.136;14.942;2023-06-19T13:29:05;30.30;82.40
37446;DHT22;23307;51.136;14.942;2023-06-19T13:31:31;30.10;80.90
37446;DHT22;23307;51.136;14.942;2023-06-19T13:33:56;29.90;80.90
37446;DHT22;23307;51.136;14.942;2023-06-19T13:36:22;29.80;82.10
37446;DHT22;23307;51.136;14.942;2023-06-19T13:38:49;29.70;81.40
37446;DHT22;23307;51.136;14.942;2023-06-19T13:41:14;29.50;81.50
37446;DHT22;23307;51.136;14.942;2023-06-19T13:43:40;29.50;81.90
37446;DHT22;23307;51.136;14.942;2023-06-19T13:46:06;29.40;81.40
37446;DHT22;23307;51.136;14.942;2023-06-19T13:48:32;29.20;82.30
37446;DHT22;23307;51.136;14.942;2023-06-19T13:50:58;29.10;83.30
37446;DHT22;23307;51.136;14.942;2023-06-19T13:53:25;29.10;83.70
37446;DHT22;23307;51.136;14.942;2023-06-19T13:55:50;29.10;83.10
37446;DHT22;23307;51.136;14.942;2023-06-19T13:58:16;29.20;83.50
37446;DHT22;23307;51.136;14.942;2023-06-19T14:00:41;29.30;84.00
37446;DHT22;23307;51.136;14.942;2023-06-19T14:03:07;29.40;84.50
37446;DHT22;23307;51.136;14.942;2023-06-19T14:05:32;29.50;84.10
37446;DHT22;23307;51.136;14.942;2023-06-19T14:07:58;29.70;84.30
37446;DHT22;23307;51.136;14.942;2023-06-19T14:10:24;29.80;84.30
37446;DHT22;23307;51.136;14.942;2023-06-19T14:12:50;29.90;84.50
37446;DHT22;23307;51.136;14.942;2023-06-19T14:15:15;30.00;84.60
37446;DHT22;23307;51.136;14.942;2023-06-19T14:17:41;30.10;85.30
37446;DHT22;23307;51.136;14.942;2023-06-19T14:20:10;30.20;85.00
37446;DHT22;23307;51.136;14.942;2023-06-19T14:22:35;30.20;85.30
37446;DHT22;23307;51.136;14.942;2023-06-19T14:25:01;30.30;86.00
37446;DHT22;23307;51.136;14.942;2023-06-19T14:27:27;30.10;85.80
37446;DHT22;23307;51.136;14.942;2023-06-19T14:29:54;30.00;85.50
37446;DHT22;23307;51.136;14.942;2023-06-19T14:32:21;29.80;87.10
37446;DHT22;23307;51.136;14.942;2023-06-19T14:34:46;29.80;86.40
37446;DHT22;23307;51.136;14.942;2023-06-19T14:37:12;29.80;86.50
37446;DHT22;23307;51.136;14.942;2023-06-19T14:39:38;29.70;87.40
37446;DHT22;23307;51.136;14.942;2023-06-19T14:42:04;29.60;87.60
37446;DHT22;23307;51.136;14.942;2023-06-19T14:44:30;29.40;87.90
37446;DHT22;23307;51.136;14.942;2023-06-19T14:46:56;29.40;88.80
37446;DHT22;23307;51.136;14.942;2023-06-19T14:49:22;29.40;86.90
37446;DHT22;23307;51.136;14.942;2023-06-19T14:51:48;29.40;86.80
37446;DHT22;23307;51.136;14.942;2023-06-19T14:54:14;29.40;86.40
37446;DHT22;23307;51.136;14.942;2023-06-19T14:56:41;29.40;87.20
37446;DHT22;23307;51.136;14.942;2023-06-19T14:59:06;29.30;87.60
37446;DHT22;23307;51.136;14.942;2023-06-19T15:01:32;29.30;87.50
37446;DHT22;23307;51.136;14.942;2023-06-19T15:03:57;29.30;87.80
37446;DHT22;23307;51.136;14.942;2023-06-19T15:06:23;29.50;88.90
37446;DHT22;23307;51.136;14.942;2023-06-19T15:08:48;29.50;86.80
37446;DHT22;23307;51.136;14.942;2023-06-19T15:11:14;29.50;87.60
37446;DHT22;23307;51.136;14.942;2023-06-19T15:13:39;30.10;87.10
37446;DHT22;23307;51.136;14.942;2023-06-19T15:16:05;30.70;85.80